sensor_id;sensor_type;location;lat;lon;timestamp;P1;durP1;ratioP1;P2;durP2;ratioP2
21488;SDS011;10906;45.194;5.684;2022-10-16T08:22:04;2.53;;;1.75;;
21488;SDS011;10906;45.194;5.684;2022-10-16T08:24:48;2.92;;;2.22;;
21488;SDS011;10906;45.194;5.684;2022-10-16T08:27:32;3.50;;;2.10;;
21488;SDS011;10906;45.194;5.684;2022-10-16T08:30:17;8.88;;;2.33;;
21488;SDS011;10906;45.194;5.684;2022-10-16T08:33:02;6.25;;;2.50;;
21488;SDS011;10906;45.194;5.684;2022-10-16T08:35:51;8.18;;;2.42;;
21488;SDS011;10906;45.194;5.684;2022-10-16T08:38:37;6.05;;;2.63;;
21488;SDS011;10906;45.194;5.684;2022-10-16T08:41:34;8.27;;;2.17;;
21488;SDS011;10906;45.194;5.684;2022-10-16T08:47:26;3.42;;;1.85;;
21488;SDS011;10906;45.194;5.684;2022-10-16T08:50:26;7.88;;;1.90;;
21488;SDS011;10906;45.194;5.684;2022-10-16T08:53:17;5.47;;;2.00;;
21488;SDS011;10906;45.194;5.684;2022-10-16T08:56:09;3.88;;;1.70;;
21488;SDS011;10906;45.194;5.684;2022-10-16T08:58:53;7.18;;;2.15;;
21488;SDS011;10906;45.194;5.684;2022-10-16T09:01:43;3.40;;;1.50;;
21488;SDS011;10906;45.194;5.684;2022-10-16T09:04:37;3.05;;;1.35;;
21488;SDS011;10906;45.194;5.684;2022-10-16T09:07:27;3.92;;;1.33;;
21488;SDS011;10906;45.194;5.684;2022-10-16T09:16:18;5.97;;;1.70;;
21488;SDS011;10906;45.194;5.684;2022-10-16T09:22:12;3.90;;;1.50;;
21488;SDS011;10906;45.194;5.684;2022-10-16T09:24:59;1.98;;;1.42;;
21488;SDS011;10906;45.194;5.684;2022-10-16T09:27:53;4.55;;;1.45;;
21488;SDS011;10906;45.194;5.684;2022-10-16T09:30:38;7.45;;;2.90;;
21488;SDS011;10906;45.194;5.684;2022-10-16T09:33:24;6.53;;;2.67;;
21488;SDS011;10906;45.194;5.684;2022-10-16T09:36:14;7.20;;;2.83;;
21488;SDS011;10906;45.194;5.684;2022-10-16T09:39:05;6.30;;;2.65;;
21488;SDS011;10906;45.194;5.684;2022-10-16T09:41:58;6.07;;;2.63;;
21488;SDS011;10906;45.194;5.684;2022-10-16T09:44:47;3.95;;;2.40;;
21488;SDS011;10906;45.194;5.684;2022-10-16T09:47:35;9.15;;;3.30;;
21488;SDS011;10906;45.194;5.684;2022-10-16T09:50:28;7.43;;;2.55;;
21488;SDS011;10906;45.194;5.684;2022-10-16T09:53:12;7.07;;;2.38;;
21488;SDS011;10906;45.194;5.684;2022-10-16T09:55:58;11.07;;;3.15;;
21488;SDS011;10906;45.194;5.684;2022-10-16T09:58:43;8.77;;;3.85;;
21488;SDS011;10906;45.194;5.684;2022-10-16T10:01:37;7.75;;;3.08;;
21488;SDS011;10906;45.194;5.684;2022-10-16T10:04:23;5.35;;;2.85;;
21488;SDS011;10906;45.194;5.684;2022-10-16T10:07:16;11.23;;;3.70;;
21488;SDS011;10906;45.194;5.684;2022-10-16T10:10:04;8.45;;;3.47;;
21488;SDS011;10906;45.194;5.684;2022-10-16T10:12:50;7.80;;;2.80;;
21488;SDS011;10906;45.194;5.684;2022-10-16T10:15:34;3.80;;;2.28;;
21488;SDS011;10906;45.194;5.684;2022-10-16T10:18:25;8.35;;;2.75;;
21488;SDS011;10906;45.194;5.684;2022-10-16T10:21:12;4.35;;;2.53;;
21488;SDS011;10906;45.194;5.684;2022-10-16T10:23:59;5.05;;;2.75;;
21488;SDS011;10906;45.194;5.684;2022-10-16T10:26:49;5.97;;;3.10;;
21488;SDS011;10906;45.194;5.684;2022-10-16T10:39:19;9.02;;;3.53;;
21488;SDS011;10906;45.194;5.684;2022-10-16T10:45:19;6.10;;;3.20;;
21488;SDS011;10906;45.194;5.684;2022-10-16T11:01:01;8.05;;;3.53;;
21488;SDS011;10906;45.194;5.684;2022-10-16T11:04:01;8.05;;;3.88;;
21488;SDS011;10906;45.194;5.684;2022-10-16T11:09:59;9.18;;;5.15;;
21488;SDS011;10906;45.194;5.684;2022-10-16T11:16:17;8.45;;;4.05;;
21488;SDS011;10906;45.194;5.684;2022-10-16T11:19:14;6.28;;;3.80;;
21488;SDS011;10906;45.194;5.684;2022-10-16T11:25:18;10.25;;;3.15;;
21488;SDS011;10906;45.194;5.684;2022-10-16T11:28:09;6.60;;;3.45;;
21488;SDS011;10906;45.194;5.684;2022-10-16T11:31:05;6.80;;;2.97;;
21488;SDS011;10906;45.194;5.684;2022-10-16T11:37:17;6.65;;;2.85;;
21488;SDS011;10906;45.194;5.684;2022-10-16T11:40:31;4.95;;;3.08;;
21488;SDS011;10906;45.194;5.684;2022-10-16T11:46:28;9.63;;;3.20;;
21488;SDS011;10906;45.194;5.684;2022-10-16T11:49:18;10.10;;;3.20;;
21488;SDS011;10906;45.194;5.684;2022-10-16T11:55:14;6.47;;;2.60;;
21488;SDS011;10906;45.194;5.684;2022-10-16T11:58:05;4.75;;;2.08;;
21488;SDS011;10906;45.194;5.684;2022-10-16T12:01:04;6.97;;;2.60;;
21488;SDS011;10906;45.194;5.684;2022-10-16T12:04:49;5.88;;;2.38;;
21488;SDS011;10906;45.194;5.684;2022-10-16T12:07:32;5.97;;;2.58;;
21488;SDS011;10906;45.194;5.684;2022-10-16T12:10:24;4.00;;;1.63;;
21488;SDS011;10906;45.194;5.684;2022-10-16T12:13:30;6.45;;;1.50;;
21488;SDS011;10906;45.194;5.684;2022-10-16T12:19:10;5.90;;;1.60;;
21488;SDS011;10906;45.194;5.684;2022-10-16T12:21:58;4.35;;;1.80;;
21488;SDS011;10906;45.194;5.684;2022-10-16T12:24:45;3.17;;;1.30;;
21488;SDS011;10906;45.194;5.684;2022-10-16T12:27:35;3.25;;;1.30;;
21488;SDS011;10906;45.194;5.684;2022-10-16T12:30:22;3.35;;;1.45;;
21488;SDS011;10906;45.194;5.684;2022-10-16T12:33:21;4.07;;;1.40;;
21488;SDS011;10906;45.194;5.684;2022-10-16T12:36:11;2.22;;;1.45;;
21488;SDS011;10906;45.194;5.684;2022-10-16T12:39:01;3.15;;;1.40;;
21488;SDS011;10906;45.194;5.684;2022-10-16T12:41:46;2.38;;;1.35;;
21488;SDS011;10906;45.194;5.684;2022-10-16T12:44:34;3.20;;;1.42;;
21488;SDS011;10906;45.194;5.684;2022-10-16T12:50:26;5.40;;;1.80;;
21488;SDS011;10906;45.194;5.684;2022-10-16T12:53:21;2.75;;;1.42;;
21488;SDS011;10906;45.194;5.684;2022-10-16T12:59:02;3.80;;;1.33;;
21488;SDS011;10906;45.194;5.684;2022-10-16T13:03:11;4.05;;;1.40;;
21488;SDS011;10906;45.194;5.684;2022-10-16T13:08:12;3.80;;;1.60;;
21488;SDS011;10906;45.194;5.684;2022-10-16T13:11:23;1.85;;;1.30;;
21488;SDS011;10906;45.194;5.684;2022-10-16T13:17:59;3.17;;;1.27;;
21488;SDS011;10906;45.194;5.684;2022-10-16T13:21:02;4.18;;;1.45;;
21488;SDS011;10906;45.194;5.684;2022-10-16T13:24:11;1.98;;;1.10;;
21488;SDS011;10906;45.194;5.684;2022-10-16T13:27:21;2.65;;;1.40;;
21488;SDS011;10906;45.194;5.684;2022-10-16T13:30:20;3.35;;;1.20;;
21488;SDS011;10906;45.194;5.684;2022-10-16T13:35:59;2.17;;;1.50;;
21488;SDS011;10906;45.194;5.684;2022-10-16T13:38:44;2.50;;;1.30;;
21488;SDS011;10906;45.194;5.684;2022-10-16T13:41:28;5.57;;;1.30;;
21488;SDS011;10906;45.194;5.684;2022-10-16T13:44:17;2.92;;;1.50;;
21488;SDS011;10906;45.194;5.684;2022-10-16T13:47:03;4.63;;;1.35;;
21488;SDS011;10906;45.194;5.684;2022-10-16T13:49:58;4.05;;;1.05;;
21488;SDS011;10906;45.194;5.684;2022-10-16T13:53:02;3.88;;;1.02;;
21488;SDS011;10906;45.194;5.684;2022-10-16T13:55:51;3.75;;;1.50;;
21488;SDS011;10906;45.194;5.684;2022-10-16T13:58:35;3.15;;;1.10;;
21488;SDS011;10906;45.194;5.684;2022-10-16T14:01:20;4.38;;;1.58;;
21488;SDS011;10906;45.194;5.684;2022-10-16T14:04:09;2.63;;;1.20;;
21488;SDS011;10906;45.194;5.684;2022-10-16T14:06:55;3.95;;;1.70;;
21488;SDS011;10906;45.194;5.684;2022-10-16T14:09:39;3.63;;;1.42;;
21488;SDS011;10906;45.194;5.684;2022-10-16T14:12:24;4.78;;;1.60;;
21488;SDS011;10906;45.194;5.684;2022-10-16T14:15:15;3.65;;;1.42;;
21488;SDS011;10906;45.194;5.684;2022-10-16T14:18:02;2.73;;;1.50;;
21488;SDS011;10906;45.194;5.684;2022-10-16T14:20:47;5.40;;;1.35;;
21488;SDS011;10906;45.194;5.684;2022-10-16T14:23:36;2.10;;;1.23;;
21488;SDS011;10906;45.194;5.684;2022-10-16T14:26:23;5.20;;;1.50;;
21488;SDS011;10906;45.194;5.684;2022-10-16T14:29:11;1.92;;;1.15;;
21488;SDS011;10906;45.194;5.684;2022-10-16T14:32:03;3.05;;;1.48;;
21488;SDS011;10906;45.194;5.684;2022-10-16T14:35:24;2.72;;;1.58;;
21488;SDS011;10906;45.194;5.684;2022-10-16T14:38:19;5.18;;;1.45;;
21488;SDS011;10906;45.194;5.684;2022-10-16T14:41:05;4.07;;;1.60;;
21488;SDS011;10906;45.194;5.684;2022-10-16T14:43:50;5.05;;;1.55;;
21488;SDS011;10906;45.194;5.684;2022-10-16T14:46:40;1.95;;;1.45;;
21488;SDS011;10906;45.194;5.684;2022-10-16T14:49:26;2.97;;;1.30;;
21488;SDS011;10906;45.194;5.684;2022-10-16T14:52:12;2.35;;;1.50;;
21488;SDS011;10906;45.194;5.684;2022-10-16T14:54:56;2.58;;;1.35;;
21488;SDS011;10906;45.194;5.684;2022-10-16T14:57:41;5.75;;;1.40;;
21488;SDS011;10906;45.194;5.684;2022-10-16T15:00:27;4.95;;;1.50;;
21488;SDS011;10906;45.194;5.684;2022-10-16T15:03:11;1.92;;;1.45;;
21488;SDS011;10906;45.194;5.684;2022-10-16T15:05:56;1.80;;;1.42;;
21488;SDS011;10906;45.194;5.684;2022-10-16T15:08:40;6.50;;;1.50;;
21488;SDS011;10906;45.194;5.684;2022-10-16T15:11:24;1.88;;;1.50;;
21488;SDS011;10906;45.194;5.684;2022-10-16T15:14:12;3.10;;;1.50;;
21488;SDS011;10906;45.194;5.684;2022-10-16T15:16:57;2.47;;;1.45;;
21488;SDS011;10906;45.194;5.684;2022-10-16T15:19:41;3.20;;;1.52;;
21488;SDS011;10906;45.194;5.684;2022-10-16T15:22:25;4.63;;;1.55;;
21488;SDS011;10906;45.194;5.684;2022-10-16T15:25:15;3.30;;;1.55;;
21488;SDS011;10906;45.194;5.684;2022-10-16T15:28:13;3.40;;;1.47;;
21488;SDS011;10906;45.194;5.684;2022-10-16T15:30:59;3.67;;;1.25;;
21488;SDS011;10906;45.194;5.684;2022-10-16T15:33:43;5.22;;;1.35;;
21488;SDS011;10906;45.194;5.684;2022-10-16T15:36:32;4.18;;;1.55;;
21488;SDS011;10906;45.194;5.684;2022-10-16T15:39:19;5.78;;;1.63;;
21488;SDS011;10906;45.194;5.684;2022-10-16T15:42:04;3.13;;;1.45;;
21488;SDS011;10906;45.194;5.684;2022-10-16T15:44:49;2.90;;;1.52;;
21488;SDS011;10906;45.194;5.684;2022-10-16T15:47:34;9.60;;;1.60;;
21488;SDS011;10906;45.194;5.684;2022-10-16T15:50:19;5.38;;;1.60;;
21488;SDS011;10906;45.194;5.684;2022-10-16T15:53:03;4.68;;;1.40;;
21488;SDS011;10906;45.194;5.684;2022-10-16T15:55:48;3.05;;;1.50;;
21488;SDS011;10906;45.194;5.684;2022-10-16T16:02:14;4.18;;;1.35;;
21488;SDS011;10906;45.194;5.684;2022-10-16T16:05:02;6.38;;;1.40;;
21488;SDS011;10906;45.194;5.684;2022-10-16T16:07:47;3.85;;;1.50;;
21488;SDS011;10906;45.194;5.684;2022-10-16T16:10:32;2.88;;;1.52;;
21488;SDS011;10906;45.194;5.684;2022-10-16T16:13:16;4.05;;;1.20;;
21488;SDS011;10906;45.194;5.684;2022-10-16T16:16:00;4.93;;;1.63;;
21488;SDS011;10906;45.194;5.684;2022-10-16T16:18:45;8.13;;;1.70;;
21488;SDS011;10906;45.194;5.684;2022-10-16T16:21:29;3.40;;;1.50;;
21488;SDS011;10906;45.194;5.684;2022-10-16T16:24:14;2.45;;;1.50;;
21488;SDS011;10906;45.194;5.684;2022-10-16T16:27:01;5.97;;;1.45;;
21488;SDS011;10906;45.194;5.684;2022-10-16T16:29:45;4.57;;;1.50;;
21488;SDS011;10906;45.194;5.684;2022-10-16T16:32:41;3.88;;;1.63;;
21488;SDS011;10906;45.194;5.684;2022-10-16T16:35:26;5.35;;;1.60;;
21488;SDS011;10906;45.194;5.684;2022-10-16T16:38:13;3.53;;;1.60;;
21488;SDS011;10906;45.194;5.684;2022-10-16T16:40:58;3.33;;;1.92;;
21488;SDS011;10906;45.194;5.684;2022-10-16T16:43:43;4.47;;;1.65;;
21488;SDS011;10906;45.194;5.684;2022-10-16T16:46:35;7.95;;;1.50;;
21488;SDS011;10906;45.194;5.684;2022-10-16T16:49:19;3.63;;;1.45;;
21488;SDS011;10906;45.194;5.684;2022-10-16T16:52:28;5.65;;;1.83;;
21488;SDS011;10906;45.194;5.684;2022-10-16T16:55:18;2.28;;;1.70;;
21488;SDS011;10906;45.194;5.684;2022-10-16T16:58:03;2.35;;;1.48;;
21488;SDS011;10906;45.194;5.684;2022-10-16T17:00:48;2.05;;;1.70;;
21488;SDS011;10906;45.194;5.684;2022-10-16T17:03:34;6.13;;;1.48;;
21488;SDS011;10906;45.194;5.684;2022-10-16T17:06:20;5.53;;;2.00;;
21488;SDS011;10906;45.194;5.684;2022-10-16T17:09:08;4.07;;;1.98;;
21488;SDS011;10906;45.194;5.684;2022-10-16T17:11:56;9.82;;;2.03;;
21488;SDS011;10906;45.194;5.684;2022-10-16T18:19:02;4.90;;;2.58;;
21488;SDS011;10906;45.194;5.684;2022-10-16T18:40:01;6.53;;;2.70;;
21488;SDS011;10906;45.194;5.684;2022-10-16T18:58:20;8.75;;;2.60;;
21488;SDS011;10906;45.194;5.684;2022-10-16T19:01:20;9.38;;;2.60;;
21488;SDS011;10906;45.194;5.684;2022-10-16T19:04:23;6.90;;;2.50;;
21488;SDS011;10906;45.194;5.684;2022-10-16T19:07:11;6.22;;;2.50;;
21488;SDS011;10906;45.194;5.684;2022-10-16T19:10:02;6.95;;;2.60;;
21488;SDS011;10906;45.194;5.684;2022-10-16T19:13:05;4.55;;;2.28;;
21488;SDS011;10906;45.194;5.684;2022-10-16T19:15:50;9.38;;;2.35;;
21488;SDS011;10906;45.194;5.684;2022-10-16T19:18:34;9.85;;;2.35;;
21488;SDS011;10906;45.194;5.684;2022-10-16T19:21:21;11.82;;;2.97;;
21488;SDS011;10906;45.194;5.684;2022-10-16T19:24:09;4.95;;;2.42;;
21488;SDS011;10906;45.194;5.684;2022-10-16T19:26:56;4.47;;;2.50;;
21488;SDS011;10906;45.194;5.684;2022-10-16T19:29:40;7.18;;;2.70;;
21488;SDS011;10906;45.194;5.684;2022-10-16T19:32:25;7.63;;;2.65;;
21488;SDS011;10906;45.194;5.684;2022-10-16T19:35:09;6.03;;;2.53;;
21488;SDS011;10906;45.194;5.684;2022-10-16T19:40:37;5.72;;;2.72;;
21488;SDS011;10906;45.194;5.684;2022-10-16T19:43:21;4.43;;;2.75;;
21488;SDS011;10906;45.194;5.684;2022-10-16T19:46:07;5.30;;;2.83;;
21488;SDS011;10906;45.194;5.684;2022-10-16T19:48:54;5.68;;;3.13;;
21488;SDS011;10906;45.194;5.684;2022-10-16T19:51:39;6.88;;;2.83;;
21488;SDS011;10906;45.194;5.684;2022-10-16T19:54:24;6.45;;;2.58;;
21488;SDS011;10906;45.194;5.684;2022-10-16T19:57:08;5.95;;;2.90;;
21488;SDS011;10906;45.194;5.684;2022-10-16T19:59:53;8.57;;;2.90;;
21488;SDS011;10906;45.194;5.684;2022-10-16T20:02:37;3.90;;;2.88;;
21488;SDS011;10906;45.194;5.684;2022-10-16T20:05:21;5.68;;;3.05;;
21488;SDS011;10906;45.194;5.684;2022-10-16T20:08:05;6.18;;;3.22;;
21488;SDS011;10906;45.194;5.684;2022-10-16T20:10:50;6.20;;;3.08;;
21488;SDS011;10906;45.194;5.684;2022-10-16T20:13:35;6.20;;;3.17;;
21488;SDS011;10906;45.194;5.684;2022-10-16T20:16:20;9.20;;;3.17;;
21488;SDS011;10906;45.194;5.684;2022-10-16T20:19:05;7.78;;;3.25;;
21488;SDS011;10906;45.194;5.684;2022-10-16T20:21:49;7.35;;;3.72;;
21488;SDS011;10906;45.194;5.684;2022-10-16T20:24:34;8.77;;;3.88;;
21488;SDS011;10906;45.194;5.684;2022-10-16T20:27:19;7.22;;;3.97;;
21488;SDS011;10906;45.194;5.684;2022-10-16T20:30:03;8.90;;;3.47;;
21488;SDS011;10906;45.194;5.684;2022-10-16T20:32:48;5.00;;;4.10;;
21488;SDS011;10906;45.194;5.684;2022-10-16T20:35:38;10.43;;;3.58;;
21488;SDS011;10906;45.194;5.684;2022-10-16T20:38:24;8.15;;;4.05;;
21488;SDS011;10906;45.194;5.684;2022-10-16T20:41:09;8.27;;;3.25;;
21488;SDS011;10906;45.194;5.684;2022-10-16T20:43:53;5.80;;;3.50;;
21488;SDS011;10906;45.194;5.684;2022-10-16T20:46:38;6.55;;;3.30;;
21488;SDS011;10906;45.194;5.684;2022-10-16T20:49:23;6.30;;;3.65;;
21488;SDS011;10906;45.194;5.684;2022-10-16T20:52:07;11.90;;;4.15;;
21488;SDS011;10906;45.194;5.684;2022-10-16T20:54:52;6.75;;;3.92;;
21488;SDS011;10906;45.194;5.684;2022-10-16T20:57:36;8.73;;;3.35;;
21488;SDS011;10906;45.194;5.684;2022-10-16T21:00:21;10.05;;;4.05;;
21488;SDS011;10906;45.194;5.684;2022-10-16T21:03:07;7.22;;;3.67;;
21488;SDS011;10906;45.194;5.684;2022-10-16T21:05:51;8.77;;;3.50;;
21488;SDS011;10906;45.194;5.684;2022-10-16T21:08:37;9.77;;;4.13;;
21488;SDS011;10906;45.194;5.684;2022-10-16T21:11:26;8.40;;;4.43;;
21488;SDS011;10906;45.194;5.684;2022-10-16T21:14:10;8.60;;;3.83;;
21488;SDS011;10906;45.194;5.684;2022-10-16T21:16:55;8.70;;;3.53;;
21488;SDS011;10906;45.194;5.684;2022-10-16T21:19:39;9.75;;;3.88;;
21488;SDS011;10906;45.194;5.684;2022-10-16T21:25:11;6.47;;;3.60;;
21488;SDS011;10906;45.194;5.684;2022-10-16T21:27:55;10.27;;;3.55;;
21488;SDS011;10906;45.194;5.684;2022-10-16T21:33:24;6.90;;;3.55;;
21488;SDS011;10906;45.194;5.684;2022-10-16T21:36:12;8.30;;;3.50;;
21488;SDS011;10906;45.194;5.684;2022-10-16T21:39:08;7.57;;;3.35;;
21488;SDS011;10906;45.194;5.684;2022-10-16T21:41:54;9.65;;;3.75;;
21488;SDS011;10906;45.194;5.684;2022-10-16T21:44:39;6.80;;;3.63;;
21488;SDS011;10906;45.194;5.684;2022-10-16T21:47:23;10.68;;;3.40;;
21488;SDS011;10906;45.194;5.684;2022-10-16T21:50:08;11.90;;;3.90;;
21488;SDS011;10906;45.194;5.684;2022-10-16T21:52:53;6.55;;;3.58;;
21488;SDS011;10906;45.194;5.684;2022-10-16T21:55:37;8.07;;;4.00;;
